Sunland Park, NM

8:28 PM MST on December 22, 2014 (GMT -0700)
NonFedAWOS DONAANA NM US SUPERAWOS | Change Station
CLOSE
Current Station
Personal Weather Station
Location: Santa Teresa, NM
Elevation: 4111 ft
Nearby Weather Stations

Elev 4111 ft 31.88 °N, 106.70 °W | Updated 53 minutes ago

Clear
Clear
57 °F
Feels Like 57 °F
N
5
Wind Variable Wind from WSW
Gusts 0.0 mph

Today
High -- | Low -- °F
--% Chance of Precip.
Yesterday
High -- | Low -- °F
Precip. -- in
7:02 AM 5:07 PM
New Moon, 2% visible
Pressure 29.63 in
Visibility 10.0 miles
Clouds Few 12000 ft
Few 20000 ft
Dew Point 32 °F
Humidity 38%
Rainfall -999.00 in
Snow Depth Not available.
UV 0 out of 12
Pollen 9.00 out of 12
Air Quality Not available.
Flu Activity Not available.
METAR KELP 230251Z 29022G28KT 10SM FEW120 FEW200 16/01 A2974 RMK AO2 PK WND 29036/0202 SLP033 T01560011 53010

More Conditions Fewer Conditions

Pressure 29.63 in
Visibility 10.0 miles
Clouds Few 12000 ft
Few 20000 ft
Dew Point 32 °F
Humidity 38%
Rainfall -999.00 in
Snow Depth Not available.
UV 0 out of 12
Pollen 9.00 out of 12
Air Quality Not available.
Flu Activity Not available.
METAR KELP 230251Z 29022G28KT 10SM FEW120 FEW200 16/01 A2974 RMK AO2 PK WND 29036/0202 SLP033 T01560011 53010

More Conditions Fewer Conditions

10-Day Weather Forecast

Almanac

Astronomy

Dec. 22, 2014 Rise Set
Actual Time
Civil Twilight
Nautical Twilight
Astronomical Twilight
Moon
Length of Visible Light
Length of Day
Tomorrow will be .
, % of the Moon is Illuminated

Today's Extremes

State Highs State Lows

Community

WunderPhotos

Upload Photos

1,779,763 photos uploaded!

WunderBlogs® & News

Nearby

Air Quality

  Air Quality AQ Index Pollutant
Not available.

Snow Depth

Station Depth Elevation

Earthquake Activity

City Distance Mag. Time & Date
Minimum magnitude displayed is 2.5.

Coastal Water Temperatures

Place Temperature

Nearby Weather Stations